Time;durP1;ratioP1;P1;durP2;ratioP2;P2;SDS_P1;SDS_P2;PMS_P1;PMS_P2;Temp;Humidity;BMP_temperature;BMP_pressure;BME280_temperature;BME280_humidity;BME280_pressure;Samples;Min_cycle;Max_cycle;Signal;HPM_P1;HPM_P2
2022/11/16 00:02:14;;;;;;;;;;;;;;;5.97;88.12;100398.96;1711876;83;20212;-84
2022/11/16 00:04:59;;;;;;;;;;;;;;;5.96;88.17;100386.98;1714295;83;20219;-84
2022/11/16 00:07:43;;;;;;;;;;;;;;;5.94;88.07;100393.83;1713757;83;20243;-84
2022/11/16 00:10:28;;;;;;;;;;;;;;;5.94;88.18;100387.84;1714490;83;20259;-84
2022/11/16 00:13:12;;;;;;;;;;;;;;;5.96;88.19;100386.98;1713547;82;20171;-85
2022/11/16 00:15:57;;;;;;;;;;;;;;;5.96;88.17;100388.27;1719452;82;20517;-85
2022/11/16 00:18:42;;;;;;;;;;;;;;;5.97;88.18;100387.41;1719708;83;20207;-84
2022/11/16 00:21:26;;;;;;;;;;;;;;;5.95;88.19;100387.84;1720338;83;20663;-84
2022/11/16 00:24:12;;;;;;;;;;;;;;;5.96;88.25;100386.98;1742521;82;20610;-84
2022/11/16 00:26:57;;;;;;;;;;;;;;;5.96;88.21;100384.84;1744564;82;20190;-85
2022/11/16 00:29:41;;;;;;;;;;;;;;;5.96;88.22;100378.00;1743155;82;20190;-85
2022/11/16 00:32:26;;;;;;;;;;;;;;;5.98;88.21;100379.28;1743491;82;20167;-84
2022/11/16 00:35:10;;;;;;;;;;;;;;;5.98;88.26;100378.86;1743361;82;20510;-84
2022/11/16 00:37:55;;;;;;;;;;;;;;;6.01;88.29;100381.84;1743319;82;20329;-84
2022/11/16 00:40:39;;;;;;;;;;;;;;;6.02;88.25;100379.70;1743157;82;20194;-84
2022/11/16 00:43:24;;;;;;;;;;;;;;;6.05;88.31;100379.70;1742050;82;20230;-84
2022/11/16 00:46:09;;;;;;;;;;;;;;;6.05;88.26;100380.98;1743077;82;20206;-84
2022/11/16 00:48:53;;;;;;;;;;;;;;;6.08;88.27;100386.12;1742290;82;20470;-85
2022/11/16 00:51:38;;;;;;;;;;;;;;;6.10;88.27;100385.69;1743715;82;20202;-85
2022/11/16 00:54:22;;;;;;;;;;;;;;;6.12;88.31;100386.54;1736166;82;20192;-85
2022/11/16 00:57:06;;;;;;;;;;;;;;;6.13;88.27;100384.83;1742450;82;20203;-85
2022/11/16 00:59:51;;;;;;;;;;;;;;;6.12;88.24;100389.11;1743723;82;20198;-85
2022/11/16 01:02:35;;;;;;;;;;;;;;;6.11;88.24;100383.55;1739938;82;20374;-85
2022/11/16 01:05:21;;;;;;;;;;;;;;;6.11;88.23;100382.69;1731649;82;20831;-84
2022/11/16 01:08:05;;;;;;;;;;;;;;;6.10;88.23;100386.11;1736435;82;20150;-84
2022/11/16 01:10:50;;;;;;;;;;;;;;;6.09;88.21;100385.26;1742359;82;20528;-84
2022/11/16 01:13:35;;;;;;;;;;;;;;;6.10;88.23;100393.39;1742065;82;20146;-84
2022/11/16 01:16:20;;;;;;;;;;;;;;;6.10;88.17;100396.37;1735719;82;20206;-84
2022/11/16 01:19:05;;;;;;;;;;;;;;;6.07;88.17;100393.39;1742526;82;20150;-84
2022/11/16 01:21:49;;;;;;;;;;;;;;;6.06;88.17;100381.84;1742483;82;20187;-86
2022/11/16 01:24:34;;;;;;;;;;;;;;;6.05;88.18;100382.70;1741713;82;20202;-86
2022/11/16 01:27:18;;;;;;;;;;;;;;;6.05;88.15;100387.83;1743129;82;20222;-86
2022/11/16 01:30:04;;;;;;;;;;;;;;;6.04;88.19;100378.42;1744536;82;20485;-86
2022/11/16 01:32:49;;;;;;;;;;;;;;;6.04;88.17;100379.70;1740241;82;20166;-86
2022/11/16 01:35:33;;;;;;;;;;;;;;;6.04;88.21;100378.42;1738281;82;20585;-86
2022/11/16 01:38:18;;;;;;;;;;;;;;;6.04;88.24;100374.14;1740136;82;20203;-86
2022/11/16 01:41:05;;;;;;;;;;;;;;;6.02;88.15;100371.16;1742750;82;20163;-87
2022/11/16 01:44:01;;;;;;;;;;;;;;;6.00;88.19;100376.72;1743483;80;20505;-87
2022/11/16 01:46:46;;;;;;;;;;;;;;;5.99;88.22;100374.58;1734951;82;20266;-86
2022/11/16 01:49:33;;;;;;;;;;;;;;;5.97;88.16;100378.43;1723425;82;20631;-86
2022/11/16 01:52:20;;;;;;;;;;;;;;;5.96;88.17;100391.27;1735855;82;20664;-87
2022/11/16 01:55:05;;;;;;;;;;;;;;;5.93;88.05;100381.00;1727851;82;20532;-86
2022/11/16 01:57:50;;;;;;;;;;;;;;;5.88;87.99;100375.84;1724190;82;20543;-86
2022/11/16 02:00:35;;;;;;;;;;;;;;;5.87;88.03;100377.12;1740333;82;20169;-87
2022/11/16 02:03:20;;;;;;;;;;;;;;;5.88;88.06;100376.27;1723306;82;20201;-86
2022/11/16 02:06:17;;;;;;;;;;;;;;;5.88;88.06;100378.41;1732825;82;20126;-86
2022/11/16 02:12:39;;;;;;;;;;;;;;;5.82;87.94;100386.10;1726489;82;20575;-86
2022/11/16 02:15:30;;;;;;;;;;;;;;;5.81;87.93;100384.81;1718120;82;20202;-86
2022/11/16 02:18:35;;;;;;;;;;;;;;;5.78;87.93;100376.70;1712972;83;20275;-86
2022/11/16 02:21:43;;;;;;;;;;;;;;;5.76;87.91;100366.86;1707396;83;20546;-86
2022/11/16 02:24:31;;;;;;;;;;;;;;;5.75;87.93;100363.87;1709000;83;20238;-86
2022/11/16 02:27:26;;;;;;;;;;;;;;;5.76;87.96;100360.45;1704087;83;20186;-86
2022/11/16 02:30:10;;;;;;;;;;;;;;;5.76;87.93;100355.31;1706106;83;20255;-86
2022/11/16 02:33:01;;;;;;;;;;;;;;;5.76;87.95;100362.16;1710484;83;20250;-86
2022/11/16 02:35:49;;;;;;;;;;;;;;;5.77;87.94;100355.74;1713366;83;20680;-86
2022/11/16 02:38:37;;;;;;;;;;;;;;;5.77;87.89;100354.46;1707649;83;20171;-86
2022/11/16 02:41:23;;;;;;;;;;;;;;;5.77;87.93;100352.33;1706148;83;20500;-86
2022/11/16 02:44:23;;;;;;;;;;;;;;;5.77;87.93;100342.91;1704700;83;20245;-86
2022/11/16 02:47:11;;;;;;;;;;;;;;;5.80;87.96;100353.61;1700953;83;20526;-86
2022/11/16 02:49:58;;;;;;;;;;;;;;;5.80;87.93;100350.61;1696975;83;20243;-86
2022/11/16 02:52:43;;;;;;;;;;;;;;;5.82;87.96;100346.77;1714983;83;20187;-86
2022/11/16 02:55:28;;;;;;;;;;;;;;;5.83;87.98;100342.91;1692255;83;20497;-86
2022/11/16 02:58:14;;;;;;;;;;;;;;;5.83;87.87;100346.77;1712525;82;20243;-85
2022/11/16 03:01:11;;;;;;;;;;;;;;;5.83;87.93;100335.22;1701212;83;20191;-86
2022/11/16 03:04:11;;;;;;;;;;;;;;;5.84;87.93;100331.80;1708674;82;20517;-86
2022/11/16 03:06:58;;;;;;;;;;;;;;;5.85;87.87;100336.50;1703659;83;20590;-86
2022/11/16 03:09:44;;;;;;;;;;;;;;;5.85;87.89;100323.23;1706936;82;20532;-86
2022/11/16 03:12:31;;;;;;;;;;;;;;;5.85;87.86;100323.67;1714033;83;20601;-86
2022/11/16 03:15:16;;;;;;;;;;;;;;;5.87;87.94;100329.22;1711699;82;20429;-86
2022/11/16 03:18:01;;;;;;;;;;;;;;;5.88;87.89;100324.95;1741011;82;20232;-86
2022/11/16 03:20:47;;;;;;;;;;;;;;;5.88;87.89;100328.36;1734300;82;20686;-85
2022/11/16 03:23:32;;;;;;;;;;;;;;;5.91;87.91;100330.96;1736878;82;20168;-86
2022/11/16 03:26:19;;;;;;;;;;;;;;;5.94;87.90;100333.95;1738172;82;20198;-86
2022/11/16 03:29:24;;;;;;;;;;;;;;;5.93;87.83;100331.81;1724700;82;20156;-86
2022/11/16 03:32:24;;;;;;;;;;;;;;;5.94;87.91;100329.67;1725677;82;20538;-86
2022/11/16 03:35:18;;;;;;;;;;;;;;;5.94;87.81;100327.11;1734990;82;20415;-86
2022/11/16 03:38:05;;;;;;;;;;;;;;;5.93;87.75;100327.11;1716315;82;20232;-86
2022/11/16 03:40:50;;;;;;;;;;;;;;;5.93;87.81;100324.12;1729532;82;20131;-86
2022/11/16 03:43:36;;;;;;;;;;;;;;;5.96;87.79;100318.13;1737877;82;20174;-86
2022/11/16 03:46:21;;;;;;;;;;;;;;;5.96;87.80;100319.41;1738569;82;20197;-86
2022/11/16 03:49:06;;;;;;;;;;;;;;;5.96;87.80;100320.69;1737499;82;20591;-86
2022/11/16 03:51:51;;;;;;;;;;;;;;;5.97;87.84;100320.69;1724856;82;20697;-86
2022/11/16 03:54:35;;;;;;;;;;;;;;;6.01;87.85;100316.83;1729388;82;20169;-86
2022/11/16 03:57:20;;;;;;;;;;;;;;;6.00;87.73;100315.98;1735290;82;20623;-86
2022/11/16 04:00:06;;;;;;;;;;;;;;;5.96;87.71;100311.70;1736488;82;20166;-86
2022/11/16 04:02:50;;;;;;;;;;;;;;;5.96;87.80;100311.28;1735288;82;20528;-86
2022/11/16 04:24:13;;;;;;;;;;;;;;;5.95;87.80;100282.62;1738235;82;20169;-86
2022/11/16 04:30:04;;;;;;;;;;;;;;;5.94;87.72;100282.62;1737836;82;20211;-86
2022/11/16 04:38:55;;;;;;;;;;;;;;;5.95;87.73;100278.77;1736267;82;20454;-86
2022/11/16 04:47:48;;;;;;;;;;;;;;;5.95;87.72;100276.20;1730268;82;20434;-87
2022/11/16 04:50:33;;;;;;;;;;;;;;;5.95;87.65;100272.79;1726304;82;20173;-87
2022/11/16 04:53:21;;;;;;;;;;;;;;;5.94;87.60;100271.94;1734284;82;20219;-87
2022/11/16 04:56:05;;;;;;;;;;;;;;;5.94;87.64;100274.93;1732177;82;20227;-87
2022/11/16 04:58:49;;;;;;;;;;;;;;;5.94;87.64;100272.36;1734454;82;20167;-87
2022/11/16 05:04:39;;;;;;;;;;;;;;;5.94;87.56;100277.06;1740221;82;20185;-86
2022/11/16 05:07:23;;;;;;;;;;;;;;;5.93;87.64;100270.23;1726348;82;20161;-87
2022/11/16 05:10:08;;;;;;;;;;;;;;;5.95;87.61;100273.64;1724382;82;20230;-87
2022/11/16 05:12:53;;;;;;;;;;;;;;;5.95;87.60;100267.66;1739038;82;20179;-79
2022/11/16 05:15:38;;;;;;;;;;;;;;;5.96;87.59;100266.37;1738074;82;20191;-78
2022/11/16 05:18:22;;;;;;;;;;;;;;;5.95;87.55;100259.53;1738038;82;20152;-78
2022/11/16 05:21:07;;;;;;;;;;;;;;;5.95;87.56;100257.39;1724129;82;20186;-78
2022/11/16 05:26:54;;;;;;;;;;;;;;;5.95;87.58;100251.83;1737407;82;20311;-78
2022/11/16 05:29:39;;;;;;;;;;;;;;;5.96;87.56;100247.55;1737180;82;20142;-78
2022/11/16 05:32:25;;;;;;;;;;;;;;;5.97;87.59;100247.55;1734882;82;20103;-79
2022/11/16 05:35:09;;;;;;;;;;;;;;;5.99;87.57;100251.39;1726611;80;20620;-79
2022/11/16 05:37:53;;;;;;;;;;;;;;;5.97;87.53;100248.83;1731230;82;20222;-79
2022/11/16 05:40:38;;;;;;;;;;;;;;;5.97;87.52;100244.98;1730740;80;20423;-78
2022/11/16 05:43:23;;;;;;;;;;;;;;;5.96;87.48;100250.12;1720387;82;20185;-79
2022/11/16 05:46:07;;;;;;;;;;;;;;;5.94;87.49;100259.10;1730828;81;20481;-79
2022/11/16 05:48:52;;;;;;;;;;;;;;;5.92;87.43;100253.13;1727167;82;20624;-79
2022/11/16 05:51:37;;;;;;;;;;;;;;;5.92;87.53;100247.98;1727308;82;20430;-79
2022/11/16 05:54:24;;;;;;;;;;;;;;;5.91;87.49;100247.56;1730833;82;20211;-79
2022/11/16 05:57:09;;;;;;;;;;;;;;;5.93;87.51;100247.56;1538817;82;5002670;-79
2022/11/16 05:59:54;;;;;;;;;;;;;;;5.92;87.53;100241.58;1718785;82;20230;-80
2022/11/16 06:02:38;;;;;;;;;;;;;;;5.93;87.52;100238.15;1725160;82;20667;-79
2022/11/16 06:05:23;;;;;;;;;;;;;;;5.94;87.51;100247.55;1742502;82;20191;-79
2022/11/16 06:08:07;;;;;;;;;;;;;;;5.94;87.46;100244.98;1738237;82;20224;-79
2022/11/16 06:10:52;;;;;;;;;;;;;;;5.93;87.42;100242.00;1729860;82;20209;-78
2022/11/16 06:13:37;;;;;;;;;;;;;;;5.92;87.44;100242.86;1737653;82;20202;-80
2022/11/16 06:16:21;;;;;;;;;;;;;;;5.94;87.47;100245.42;1721396;82;21138;-80
2022/11/16 06:19:06;;;;;;;;;;;;;;;5.94;87.47;100247.98;1706864;83;20225;-79
2022/11/16 06:21:51;;;;;;;;;;;;;;;5.94;87.50;100246.27;1713904;83;20230;-79
2022/11/16 06:24:35;;;;;;;;;;;;;;;5.95;87.43;100244.56;1710065;83;20589;-80
2022/11/16 06:27:20;;;;;;;;;;;;;;;5.95;87.47;100249.69;1714160;83;20210;-79
2022/11/16 06:30:06;;;;;;;;;;;;;;;5.96;87.47;100254.82;1714516;83;20283;-79
2022/11/16 06:32:50;;;;;;;;;;;;;;;5.98;87.47;100256.95;1718885;82;20171;-79
2022/11/16 06:35:35;;;;;;;;;;;;;;;6.01;87.48;100252.67;1715830;82;20138;-79
2022/11/16 06:38:19;;;;;;;;;;;;;;;6.00;87.45;100251.81;1716711;82;20132;-79
2022/11/16 06:41:04;;;;;;;;;;;;;;;6.01;87.39;100256.52;1718316;83;20151;-79
2022/11/16 06:43:49;;;;;;;;;;;;;;;6.02;87.44;100253.09;1719317;81;20172;-80
2022/11/16 06:46:34;;;;;;;;;;;;;;;6.03;87.46;100255.66;1718235;82;20135;-80
2022/11/16 06:49:18;;;;;;;;;;;;;;;6.05;87.42;100253.08;1718503;82;20184;-79
2022/11/16 06:52:02;;;;;;;;;;;;;;;6.05;87.36;100254.37;1717227;83;20414;-79
2022/11/16 06:54:47;;;;;;;;;;;;;;;6.05;87.38;100247.95;1718032;83;20259;-79
2022/11/16 06:57:34;;;;;;;;;;;;;;;6.04;87.35;100255.23;1718247;81;20190;-79
2022/11/16 07:00:18;;;;;;;;;;;;;;;6.03;87.35;100251.80;1716948;82;20227;-79
2022/11/16 07:03:02;;;;;;;;;;;;;;;6.05;87.39;100246.67;1715327;81;20573;-79
2022/11/16 07:05:47;;;;;;;;;;;;;;;6.06;87.34;100253.51;1716869;83;20372;-79
2022/11/16 07:08:31;;;;;;;;;;;;;;;6.04;87.32;100244.96;1717250;83;20511;-79
2022/11/16 07:11:16;;;;;;;;;;;;;;;6.04;87.36;100248.81;1717477;83;20211;-79
2022/11/16 07:14:01;;;;;;;;;;;;;;;6.06;87.39;100241.53;1717688;83;20171;-79
2022/11/16 07:16:46;;;;;;;;;;;;;;;6.08;87.37;100259.48;1717283;82;20382;-79
2022/11/16 07:19:30;;;;;;;;;;;;;;;6.09;87.37;100253.50;1711763;83;20208;-79
2022/11/16 07:22:15;;;;;;;;;;;;;;;6.08;87.32;100250.08;1713244;83;20240;-79
2022/11/16 07:24:59;;;;;;;;;;;;;;;6.08;87.36;100251.36;1712541;83;20712;-79
2022/11/16 07:27:44;;;;;;;;;;;;;;;6.10;87.38;100263.76;1713834;83;20801;-79
2022/11/16 07:30:29;;;;;;;;;;;;;;;6.09;87.27;100267.62;1713343;83;20610;-79
2022/11/16 07:33:13;;;;;;;;;;;;;;;6.06;87.34;100256.08;1712948;83;20208;-79
2022/11/16 07:36:03;;;;;;;;;;;;;;;6.04;87.38;100262.50;1712457;83;20222;-79
2022/11/16 07:38:48;;;;;;;;;;;;;;;6.04;87.38;100265.49;1713102;83;20207;-79
2022/11/16 07:41:32;;;;;;;;;;;;;;;6.04;87.33;100271.91;1712751;82;20705;-79
2022/11/16 07:44:18;;;;;;;;;;;;;;;6.03;87.31;100261.22;1713339;83;20200;-79
2022/11/16 07:47:02;;;;;;;;;;;;;;;6.04;87.27;100262.92;1711973;83;20510;-79
2022/11/16 07:49:47;;;;;;;;;;;;;;;6.03;87.22;100268.48;1710811;82;20839;-79
2022/11/16 07:52:32;;;;;;;;;;;;;;;6.03;87.11;100268.92;1711594;83;20706;-79
2022/11/16 07:55:16;;;;;;;;;;;;;;;6.03;87.14;100263.36;1710785;83;20215;-79
2022/11/16 07:58:02;;;;;;;;;;;;;;;6.06;87.10;100270.20;1712191;83;20394;-80
2022/11/16 08:00:47;;;;;;;;;;;;;;;6.08;87.14;100256.50;1711670;83;20223;-79
2022/11/16 08:03:32;;;;;;;;;;;;;;;6.17;87.20;100264.59;1702978;83;20700;-79
2022/11/16 08:06:22;;;;;;;;;;;;;;;6.20;87.12;100260.30;1712415;83;20239;-79
2022/11/16 08:09:08;;;;;;;;;;;;;;;6.24;87.06;100276.52;1714228;83;20467;-78
2022/11/16 08:11:53;;;;;;;;;;;;;;;6.26;87.01;100263.24;1711697;83;21384;-79
2022/11/16 08:14:38;;;;;;;;;;;;;;;6.29;87.00;100268.37;1710932;83;20507;-79
2022/11/16 08:17:23;;;;;;;;;;;;;;;6.31;86.98;100264.08;1708904;83;20483;-79
2022/11/16 08:20:08;;;;;;;;;;;;;;;6.34;86.89;100265.78;1711826;83;20204;-79
2022/11/16 08:22:54;;;;;;;;;;;;;;;6.36;86.94;100262.78;1713284;83;20128;-79
2022/11/16 08:25:39;;;;;;;;;;;;;;;6.38;86.76;100265.77;1713821;83;20132;-79
2022/11/16 08:28:24;;;;;;;;;;;;;;;6.39;86.84;100261.05;1714545;83;20399;-79
2022/11/16 08:31:13;;;;;;;;;;;;;;;6.40;86.81;100266.61;1715074;83;20761;-79
2022/11/16 08:33:59;;;;;;;;;;;;;;;6.39;86.78;100269.18;1714702;83;20420;-79
2022/11/16 08:36:43;;;;;;;;;;;;;;;6.40;86.80;100270.46;1712498;81;20529;-80
2022/11/16 08:39:27;;;;;;;;;;;;;;;6.42;86.77;100270.45;1710850;83;20235;-79
2022/11/16 08:42:12;;;;;;;;;;;;;;;6.39;86.77;100266.19;1712872;81;20630;-80
2022/11/16 08:44:58;;;;;;;;;;;;;;;6.40;86.74;100270.89;1712775;83;20197;-79
2022/11/16 08:47:42;;;;;;;;;;;;;;;6.38;86.76;100268.33;1713095;83;20251;-80
2022/11/16 08:50:27;;;;;;;;;;;;;;;6.36;86.75;100261.06;1712235;83;20543;-80
2022/11/16 08:53:14;;;;;;;;;;;;;;;6.36;86.61;100256.36;1711778;83;20223;-79
2022/11/16 08:56:08;;;;;;;;;;;;;;;6.36;86.74;100261.49;1712630;83;20212;-80
2022/11/16 08:58:54;;;;;;;;;;;;;;;6.38;86.77;100254.20;1712282;83;20183;-79
2022/11/16 09:01:39;;;;;;;;;;;;;;;6.42;86.82;100249.91;1713006;83;20244;-79
2022/11/16 09:04:23;;;;;;;;;;;;;;;6.46;86.71;100256.73;1711109;83;20259;-79
2022/11/16 09:07:09;;;;;;;;;;;;;;;6.48;86.66;100261.00;1712080;83;20155;-79
2022/11/16 09:09:53;;;;;;;;;;;;;;;6.53;86.76;100255.84;1713298;83;20577;-80
2022/11/16 09:12:38;;;;;;;;;;;;;;;6.60;86.80;100259.66;1712688;83;20167;-80
2022/11/16 09:15:23;;;;;;;;;;;;;;;6.66;86.58;100257.92;1712468;83;20642;-80
2022/11/16 09:18:07;;;;;;;;;;;;;;;6.71;86.69;100260.88;1714935;82;20159;-79
2022/11/16 09:20:52;;;;;;;;;;;;;;;6.75;86.63;100265.58;1714398;82;20175;-80
2022/11/16 09:23:36;;;;;;;;;;;;;;;6.80;86.63;100262.52;1715077;82;20535;-79
2022/11/16 09:26:21;;;;;;;;;;;;;;;6.83;86.67;100259.49;1716274;82;20640;-79
2022/11/16 09:29:06;;;;;;;;;;;;;;;6.84;86.58;100256.06;1711210;83;20186;-80
2022/11/16 09:31:50;;;;;;;;;;;;;;;6.85;86.60;100262.91;1709531;83;20203;-79
2022/11/16 09:34:35;;;;;;;;;;;;;;;6.85;86.51;100257.77;1718174;82;20238;-80
2022/11/16 09:37:20;;;;;;;;;;;;;;;6.85;86.47;100254.34;1717024;83;20624;-80
2022/11/16 09:40:05;;;;;;;;;;;;;;;6.86;86.51;100250.91;1713898;82;20673;-79
2022/11/16 09:42:57;;;;;;;;;;;;;;;6.86;86.44;100245.77;1716182;82;20196;-79
2022/11/16 09:46:03;;;;;;;;;;;;;;;6.86;86.43;100245.34;1717443;82;20247;-79
2022/11/16 09:48:49;;;;;;;;;;;;;;;6.84;86.42;100250.92;1714770;83;20508;-80
2022/11/16 09:51:35;;;;;;;;;;;;;;;6.83;86.41;100250.50;1716476;81;20227;-80
2022/11/16 09:54:22;;;;;;;;;;;;;;;6.84;86.42;100250.06;1686522;83;20274;-79
2022/11/16 09:57:09;;;;;;;;;;;;;;;6.81;86.32;100244.52;1716367;82;20192;-79
2022/11/16 10:00:00;;;;;;;;;;;;;;;6.82;86.40;100250.51;1683913;83;20213;-80
2022/11/16 10:02:51;;;;;;;;;;;;;;;6.83;86.42;100253.50;1718065;81;20191;-80
2022/11/16 10:05:45;;;;;;;;;;;;;;;6.81;86.35;100247.09;1717691;82;20188;-80
2022/11/16 10:08:45;;;;;;;;;;;;;;;6.78;86.24;100247.11;1717976;82;20215;-80
2022/11/16 10:11:42;;;;;;;;;;;;;;;6.75;86.27;100242.45;1717150;83;20219;-79
2022/11/16 10:14:34;;;;;;;;;;;;;;;6.74;86.17;100248.02;1716951;82;20225;-80
2022/11/16 10:17:34;;;;;;;;;;;;;;;6.72;86.15;100245.89;1716134;83;20184;-80
2022/11/16 10:20:39;;;;;;;;;;;;;;;6.67;86.08;100242.92;1716992;82;20495;-80
2022/11/16 10:23:33;;;;;;;;;;;;;;;6.67;86.21;100248.06;1717021;81;20187;-80
2022/11/16 10:26:36;;;;;;;;;;;;;;;6.60;86.09;100239.11;1717208;83;20223;-80
2022/11/16 10:29:51;;;;;;;;;;;;;;;6.59;86.15;100240.41;1717845;83;20223;-80
2022/11/16 10:32:49;;;;;;;;;;;;;;;6.56;86.14;100239.98;1716148;83;20236;-80
2022/11/16 10:35:51;;;;;;;;;;;;;;;6.56;86.16;100236.14;1715175;83;20182;-80
2022/11/16 10:38:35;;;;;;;;;;;;;;;6.56;86.11;100230.14;1714889;83;20606;-79
2022/11/16 10:41:23;;;;;;;;;;;;;;;6.55;86.03;100239.56;1718920;83;20522;-79
2022/11/16 10:44:26;;;;;;;;;;;;;;;6.57;86.08;100239.12;1714475;83;20230;-80
2022/11/16 10:47:20;;;;;;;;;;;;;;;6.59;86.01;100235.27;1715975;83;20206;-79
2022/11/16 10:50:21;;;;;;;;;;;;;;;6.60;85.94;100235.25;1715833;83;20974;-79
2022/11/16 10:53:05;;;;;;;;;;;;;;;6.64;85.87;100238.23;1714569;83;20519;-79
2022/11/16 10:56:23;;;;;;;;;;;;;;;6.67;85.73;100230.08;1714253;83;20183;-79
2022/11/16 10:59:11;;;;;;;;;;;;;;;6.67;85.87;100224.95;1716691;83;20184;-79
2022/11/16 11:02:00;;;;;;;;;;;;;;;6.68;85.77;100230.07;1715847;83;20255;-79
2022/11/16 11:04:48;;;;;;;;;;;;;;;6.69;85.50;100227.92;1714615;83;20224;-80
2022/11/16 11:07:38;;;;;;;;;;;;;;;6.70;85.77;100228.34;1717784;82;20254;-79
2022/11/16 11:10:32;;;;;;;;;;;;;;;6.71;85.71;100227.91;1716440;83;20562;-78
2022/11/16 11:13:22;;;;;;;;;;;;;;;6.73;85.79;100227.04;1714664;82;20532;-78
2022/11/16 11:16:16;;;;;;;;;;;;;;;6.75;85.70;100220.17;1717223;81;20171;-79
2022/11/16 11:19:26;;;;;;;;;;;;;;;6.77;85.59;100220.13;1715415;82;20219;-79
2022/11/16 11:22:12;;;;;;;;;;;;;;;6.76;85.55;100224.42;1684416;84;20414;-80
2022/11/16 11:24:57;;;;;;;;;;;;;;;6.77;85.54;100223.55;1685046;84;20658;-80
2022/11/16 11:27:42;;;;;;;;;;;;;;;6.79;85.53;100226.97;1685559;84;20246;-80
2022/11/16 11:30:26;;;;;;;;;;;;;;;6.80;85.49;100226.11;1686328;84;20528;-80
2022/11/16 11:33:11;;;;;;;;;;;;;;;6.80;85.42;100223.53;1685005;84;20565;-79
2022/11/16 11:35:59;;;;;;;;;;;;;;;6.80;85.52;100219.69;1686226;84;20206;-79
2022/11/16 11:38:57;;;;;;;;;;;;;;;6.78;85.33;100222.70;1685275;84;20230;-80
2022/11/16 11:41:44;;;;;;;;;;;;;;;6.76;85.35;100222.31;1685876;84;20471;-79
2022/11/16 11:44:49;;;;;;;;;;;;;;;6.75;85.24;100224.03;1686597;84;20767;-79
2022/11/16 11:47:43;;;;;;;;;;;;;;;6.76;85.27;100221.03;1685736;84;20198;-79
2022/11/16 11:50:46;;;;;;;;;;;;;;;6.81;85.34;100216.68;1686865;84;20391;-77
2022/11/16 11:53:49;;;;;;;;;;;;;;;6.81;85.20;100212.39;1705318;83;20163;-78
2022/11/16 11:56:34;;;;;;;;;;;;;;;6.81;85.23;100210.26;1719667;82;20135;-77
2022/11/16 11:59:24;;;;;;;;;;;;;;;6.84;85.23;100208.95;1719369;82;20164;-78
2022/11/16 12:02:34;;;;;;;;;;;;;;;6.83;85.05;100209.38;1720954;82;20593;-78
2022/11/16 12:05:48;;;;;;;;;;;;;;;6.84;85.25;100209.80;1719157;82;20163;-78
2022/11/16 12:08:52;;;;;;;;;;;;;;;6.84;85.13;100211.09;1672560;83;20164;-78
2022/11/16 12:12:00;;;;;;;;;;;;;;;6.82;85.02;100203.82;1718950;83;20231;-77
2022/11/16 12:15:07;;;;;;;;;;;;;;;6.82;85.13;100202.97;1715582;83;20636;-77
2022/11/16 12:18:11;;;;;;;;;;;;;;;6.83;85.15;100203.39;1707728;83;20235;-78
2022/11/16 12:21:05;;;;;;;;;;;;;;;6.80;84.93;100199.56;1717503;82;20231;-78
2022/11/16 12:24:25;;;;;;;;;;;;;;;6.78;84.98;100194.86;1716219;82;20624;-78
2022/11/16 12:27:42;;;;;;;;;;;;;;;6.76;84.91;100192.77;1716435;82;20349;-77
2022/11/16 12:30:27;;;;;;;;;;;;;;;6.72;84.89;100193.22;1715944;81;20526;-77
2022/11/16 12:33:24;;;;;;;;;;;;;;;6.75;84.94;100198.77;1717763;81;20183;-78
2022/11/16 12:36:30;;;;;;;;;;;;;;;6.76;84.77;100204.33;1714223;83;20661;-78
2022/11/16 12:39:36;;;;;;;;;;;;;;;6.70;84.73;100202.66;1715804;82;20855;-78
2022/11/16 12:42:28;;;;;;;;;;;;;;;6.65;84.67;100200.55;1717804;82;20729;-78
2022/11/16 12:45:31;;;;;;;;;;;;;;;6.64;84.64;100204.83;1716856;83;20546;-78
2022/11/16 12:48:26;;;;;;;;;;;;;;;6.61;84.64;100201.00;1718473;82;20207;-77
2022/11/16 12:51:38;;;;;;;;;;;;;;;6.63;84.66;100196.70;1714222;83;20171;-77
2022/11/16 12:54:35;;;;;;;;;;;;;;;6.64;84.67;100198.41;1716825;82;20379;-78
2022/11/16 12:57:26;;;;;;;;;;;;;;;6.64;84.49;100189.84;1716377;82;20259;-78
2022/11/16 13:00:18;;;;;;;;;;;;;;;6.64;84.54;100197.55;1712408;82;20242;-78
2022/11/16 13:03:10;;;;;;;;;;;;;;;6.62;84.49;100187.29;1715480;83;20254;-77
2022/11/16 13:06:01;;;;;;;;;;;;;;;6.62;84.46;100191.14;1715958;83;20259;-78
2022/11/16 13:09:04;;;;;;;;;;;;;;;6.61;84.39;100176.59;1715077;82;20227;-77
2022/11/16 13:11:54;;;;;;;;;;;;;;;6.60;84.40;100185.59;1715331;83;20263;-78
2022/11/16 13:14:42;;;;;;;;;;;;;;;6.58;84.20;100184.31;1716519;82;20203;-78
2022/11/16 13:17:28;;;;;;;;;;;;;;;6.55;84.29;100179.20;1716843;83;20553;-78
2022/11/16 13:20:23;;;;;;;;;;;;;;;6.56;84.34;100177.48;1715786;82;20219;-78
2022/11/16 13:23:32;;;;;;;;;;;;;;;6.59;84.45;100178.75;1714287;82;20259;-78
2022/11/16 13:26:23;;;;;;;;;;;;;;;6.61;84.34;100165.03;1717217;82;20262;-78
2022/11/16 13:29:17;;;;;;;;;;;;;;;6.61;84.03;100163.75;1715335;83;20207;-78
2022/11/16 13:32:22;;;;;;;;;;;;;;;6.58;84.08;100156.50;1716839;82;20258;-78
2022/11/16 13:35:15;;;;;;;;;;;;;;;6.54;84.01;100159.95;1714393;83;20506;-78
2022/11/16 13:38:00;;;;;;;;;;;;;;;6.50;84.09;100164.25;1719105;82;20499;-78
2022/11/16 13:40:45;;;;;;;;;;;;;;;6.50;84.14;100168.10;1717362;82;20494;-77
2022/11/16 13:43:29;;;;;;;;;;;;;;;6.49;84.11;100157.41;1718926;82;20211;-77
2022/11/16 13:46:14;;;;;;;;;;;;;;;6.49;84.06;100161.69;1715665;83;20245;-78
2022/11/16 13:48:59;;;;;;;;;;;;;;;6.46;83.84;100157.42;1717519;82;20249;-78
2022/11/16 13:52:05;;;;;;;;;;;;;;;6.43;83.55;100157.88;1716880;82;20578;-77
2022/11/16 13:54:51;;;;;;;;;;;;;;;6.38;83.71;100155.77;1688279;83;20221;-78
2022/11/16 13:57:37;;;;;;;;;;;;;;;6.39;83.97;100150.62;1717301;83;20539;-78
2022/11/16 14:00:33;;;;;;;;;;;;;;;6.37;83.90;100158.77;1714551;82;20256;-78
2022/11/16 14:03:21;;;;;;;;;;;;;;;6.34;83.79;100161.36;1717055;83;20538;-78
2022/11/16 14:06:25;;;;;;;;;;;;;;;6.29;83.82;100155.39;1716751;82;20601;-78
2022/11/16 14:09:29;;;;;;;;;;;;;;;6.27;83.89;100157.12;1713065;83;20239;-77
2022/11/16 14:12:53;;;;;;;;;;;;;;;6.24;83.79;100160.98;1715546;82;20313;-77
2022/11/16 14:15:37;;;;;;;;;;;;;;;6.22;83.76;100157.61;1718166;82;20243;-77
2022/11/16 14:18:35;;;;;;;;;;;;;;;6.18;83.84;100158.05;1716687;83;20623;-77
2022/11/16 14:21:24;;;;;;;;;;;;;;;6.15;83.89;100160.64;1718681;82;20246;-78
2022/11/16 14:24:15;;;;;;;;;;;;;;;6.12;83.76;100174.77;1717559;83;20422;-78
2022/11/16 14:27:15;;;;;;;;;;;;;;;6.05;83.18;100182.50;1607195;86;20522;-78
2022/11/16 14:30:06;;;;;;;;;;;;;;;6.01;83.56;100167.98;1606624;87;20187;-77
2022/11/16 14:32:54;;;;;;;;;;;;;;;5.96;83.66;100178.27;1605458;87;20203;-77
2022/11/16 14:35:39;;;;;;;;;;;;;;;5.92;83.52;100170.16;1607256;88;20191;-77
2022/11/16 14:38:32;;;;;;;;;;;;;;;5.88;83.60;100170.99;1606296;87;20211;-78
2022/11/16 14:41:21;;;;;;;;;;;;;;;5.83;83.52;100171.44;1606553;87;20645;-78
2022/11/16 14:44:08;;;;;;;;;;;;;;;5.79;83.52;100162.05;1606101;87;20558;-78
2022/11/16 14:46:52;;;;;;;;;;;;;;;5.77;83.60;100176.59;1606291;87;20591;-77
2022/11/16 14:49:40;;;;;;;;;;;;;;;5.76;83.48;100178.30;1576736;89;20673;-77
2022/11/16 14:52:28;;;;;;;;;;;;;;;5.72;83.46;100181.73;1544024;92;20208;-78
2022/11/16 14:55:21;;;;;;;;;;;;;;;5.71;83.55;100179.21;1483868;88;5001124;-78
2022/11/16 14:58:17;;;;;;;;;;;;;;;5.70;83.43;100174.94;1593866;88;20406;-77
2022/11/16 15:01:05;;;;;;;;;;;;;;;5.68;83.52;100181.36;1591895;88;20202;-77
2022/11/16 15:03:56;;;;;;;;;;;;;;;5.68;83.49;100177.94;1591723;87;20423;-78
2022/11/16 15:06:56;;;;;;;;;;;;;;;5.65;83.42;100174.52;1586071;85;5001350;-78
2022/11/16 15:09:43;;;;;;;;;;;;;;;5.59;82.96;100180.95;1718423;81;20214;-78
2022/11/16 15:12:41;;;;;;;;;;;;;;;5.52;83.19;100171.56;1719839;81;20215;-77
2022/11/16 15:15:28;;;;;;;;;;;;;;;5.52;83.32;100175.84;1719115;81;20606;-77
2022/11/16 15:18:18;;;;;;;;;;;;;;;5.49;83.11;100175.84;1718644;81;20260;-78
2022/11/16 15:21:03;;;;;;;;;;;;;;;5.47;83.29;100177.56;1691687;81;20417;-78
2022/11/16 15:23:48;;;;;;;;;;;;;;;5.47;83.28;100178.41;1698868;82;20581;-78